Altamahaw, North Carolina
Current Conditions -  °F | °C
As of 5:54 AM on Thursday 23 Oct 2014 (Local Time) from KBUY Reporting Station
Clear Clear  
Wind Chill: 44°   Ceiling: Unl
Heat Index: 47°   Visibility: 10mi
Dew Point: 38°   Wind: 6mph
Humidity: 71%   Direction: 300°WNW
Pressure: 30.02"   Gusts: NA
Location:  36.18°N, 79.51°W
Report Text: KBUY 230954Z AUTO 30005KT 10SM CLR 08/03 A3002 RMK AO2 SLP163 T00830033
Loading
Personal Weather Stations






























Interactive Weather Map
Tropical Storm Tracking
New forecast layout! Learn more

10-Day Weather Forecast

Advertisements
Track Severe Weather on mobile